createdAt,value
2023-04-21T00:00:00.494Z,14.05
2023-04-21T00:02:29.059Z,14.07
2023-04-21T00:04:57.448Z,13.97
2023-04-21T00:07:25.697Z,13.93
2023-04-21T00:09:53.940Z,14.03
2023-04-21T00:12:22.132Z,14.05
2023-04-21T00:14:50.479Z,13.97
2023-04-21T00:17:18.785Z,14.03
2023-04-21T00:19:47.841Z,14.00
2023-04-21T00:22:16.850Z,14.03
2023-04-21T00:24:45.172Z,13.99
2023-04-21T00:27:13.478Z,13.96
2023-04-21T00:29:41.814Z,13.79
2023-04-21T00:32:11.018Z,13.93
2023-04-21T00:34:39.255Z,13.94
2023-04-21T00:37:07.803Z,13.90
2023-04-21T00:39:36.271Z,13.85
2023-04-21T00:42:04.594Z,13.74
2023-04-21T00:44:32.832Z,13.85
2023-04-21T00:47:01.110Z,13.77
2023-04-21T00:49:29.548Z,13.70
2023-04-21T00:51:57.859Z,13.88
2023-04-21T00:54:26.204Z,13.84
2023-04-21T00:56:58.390Z,13.72
2023-04-21T00:59:26.748Z,13.82
2023-04-21T01:01:55.029Z,13.70
2023-04-21T01:04:23.430Z,13.75
2023-04-21T01:06:52.314Z,13.61
2023-04-21T01:09:22.018Z,13.71
2023-04-21T01:12:11.251Z,13.66
2023-04-21T01:14:40.967Z,13.73
2023-04-21T01:17:10.468Z,13.68
2023-04-21T01:19:42.922Z,13.74
2023-04-21T01:22:13.293Z,13.53
2023-04-21T01:24:48.472Z,13.71
2023-04-21T01:27:20.065Z,13.68
2023-04-21T01:29:52.197Z,13.78
2023-04-21T01:32:26.352Z,13.71
2023-04-21T01:34:57.504Z,13.80
2023-04-21T01:37:32.624Z,13.69
2023-04-21T01:40:07.087Z,13.74
2023-04-21T01:42:42.544Z,13.69
2023-04-21T01:45:11.563Z,13.76
2023-04-21T01:47:40.124Z,13.72
2023-04-21T01:50:08.731Z,13.73
2023-04-21T01:52:36.952Z,13.73
2023-04-21T01:55:05.784Z,13.73
2023-04-21T01:57:36.130Z,13.74
2023-04-21T02:00:05.629Z,13.74
2023-04-21T02:02:43.610Z,13.73
2023-04-21T02:05:14.350Z,13.69
2023-04-21T02:07:43.721Z,13.64
2023-04-21T02:10:12.793Z,13.62
2023-04-21T02:12:41.080Z,13.67
2023-04-21T02:15:12.020Z,13.70
2023-04-21T02:17:40.325Z,13.66
2023-04-21T02:20:09.520Z,13.62
2023-04-21T02:22:38.387Z,13.63
2023-04-21T02:25:07.088Z,13.57
2023-04-21T02:27:35.285Z,13.62
2023-04-21T02:30:03.821Z,13.63
2023-04-21T02:32:32.393Z,13.61
2023-04-21T02:35:00.740Z,13.59
2023-04-21T02:37:28.926Z,13.58
2023-04-21T02:39:57.290Z,13.59
2023-04-21T02:42:26.115Z,13.64
2023-04-21T02:44:54.368Z,13.51
2023-04-21T02:47:22.616Z,13.54
2023-04-21T02:49:50.961Z,13.56
2023-04-21T02:52:19.300Z,13.56
2023-04-21T02:54:47.647Z,13.57
2023-04-21T02:57:15.916Z,13.58
2023-04-21T02:59:44.185Z,13.58
2023-04-21T03:02:12.481Z,13.50
2023-04-21T03:04:40.963Z,13.48
2023-04-21T03:07:15.474Z,13.44
2023-04-21T03:09:43.816Z,13.42
2023-04-21T03:12:12.224Z,13.40
2023-04-21T03:14:42.223Z,13.41
2023-04-21T03:17:10.640Z,13.40
2023-04-21T03:19:39.140Z,13.39
2023-04-21T03:22:07.821Z,13.34
2023-04-21T03:24:37.056Z,13.31
2023-04-21T03:27:06.506Z,13.34
2023-04-21T03:29:35.972Z,13.35
2023-04-21T03:32:04.826Z,13.37
2023-04-21T03:34:33.143Z,13.35
2023-04-21T03:37:05.181Z,13.43
2023-04-21T03:39:33.584Z,13.36
2023-04-21T03:42:03.025Z,13.37
2023-04-21T03:44:31.623Z,13.25
2023-04-21T03:47:05.558Z,13.32
2023-04-21T03:49:36.970Z,13.32
2023-04-21T03:52:05.628Z,13.24
2023-04-21T03:54:34.142Z,13.28
2023-04-21T03:57:02.381Z,13.29
2023-04-21T03:59:30.936Z,13.29
2023-04-21T04:01:59.222Z,13.23
2023-04-21T04:04:27.668Z,13.29
2023-04-21T04:06:56.053Z,13.27
2023-04-21T04:09:24.473Z,13.22
2023-04-21T04:11:52.800Z,13.19
2023-04-21T04:14:21.009Z,13.15
2023-04-21T04:16:49.202Z,13.07
2023-04-21T04:19:17.727Z,13.20
2023-04-21T04:21:48.851Z,13.22
2023-04-21T04:24:17.093Z,13.24
2023-04-21T04:26:45.402Z,13.27
2023-04-21T04:29:14.031Z,13.25
2023-04-21T04:31:42.387Z,13.26
2023-04-21T04:34:11.260Z,13.28
2023-04-21T04:36:39.852Z,13.26
2023-04-21T04:39:10.404Z,13.28
2023-04-21T04:41:39.250Z,13.38
2023-04-21T04:44:07.824Z,13.45
2023-04-21T04:46:36.282Z,13.44
2023-04-21T04:49:04.727Z,13.43
2023-04-21T04:51:33.581Z,13.50
2023-04-21T04:54:02.069Z,13.48
2023-04-21T04:56:31.150Z,13.60
2023-04-21T04:58:59.593Z,13.59
2023-04-21T05:01:30.754Z,13.66
2023-04-21T05:03:59.654Z,13.71
2023-04-21T05:06:28.458Z,13.75
2023-04-21T05:08:56.886Z,13.77
2023-04-21T05:11:25.120Z,13.82
2023-04-21T05:13:53.445Z,13.86
2023-04-21T05:16:21.712Z,13.85
2023-04-21T05:18:54.098Z,13.92
2023-04-21T05:21:29.120Z,13.89
2023-04-21T05:23:59.266Z,13.89
2023-04-21T05:26:29.496Z,13.87
2023-04-21T05:28:58.745Z,13.92
2023-04-21T05:31:27.198Z,13.94
2023-04-21T05:33:55.704Z,13.97
2023-04-21T05:36:25.135Z,14.00
2023-04-21T05:38:54.090Z,14.07
2023-04-21T05:41:22.629Z,14.06
2023-04-21T05:43:50.929Z,14.09
2023-04-21T05:46:19.318Z,14.17
2023-04-21T05:48:47.673Z,14.23
2023-04-21T05:51:16.150Z,14.27
2023-04-21T05:53:45.727Z,14.34
2023-04-21T05:56:14.770Z,14.42
2023-04-21T05:58:43.126Z,14.50
2023-04-21T06:01:12.855Z,14.60
2023-04-21T06:03:41.302Z,14.70
2023-04-21T06:06:11.610Z,14.78
2023-04-21T06:08:39.926Z,14.94
2023-04-21T06:11:08.601Z,15.03
2023-04-21T06:13:38.598Z,15.06
2023-04-21T06:16:07.869Z,15.11
2023-04-21T06:18:37.408Z,15.15
2023-04-21T06:21:05.943Z,15.12
2023-04-21T06:23:34.410Z,15.21
2023-04-21T06:26:05.613Z,15.21
2023-04-21T06:28:35.622Z,15.26
2023-04-21T06:31:07.816Z,15.27
2023-04-21T06:33:37.873Z,15.27
2023-04-21T06:36:06.409Z,15.32
2023-04-21T06:38:35.013Z,15.37
2023-04-21T06:41:04.535Z,15.43
2023-04-21T06:43:33.128Z,15.54
2023-04-21T06:46:01.456Z,15.53
2023-04-21T06:48:30.483Z,15.58
2023-04-21T06:50:58.655Z,15.60
2023-04-21T06:53:27.146Z,15.73
2023-04-21T06:55:56.240Z,15.77
2023-04-21T06:58:24.587Z,15.79
2023-04-21T07:00:52.910Z,15.90
2023-04-21T07:03:21.430Z,15.97
2023-04-21T07:05:51.012Z,16.02
2023-04-21T07:08:19.100Z,16.08
2023-04-21T07:10:47.555Z,16.11
2023-04-21T07:13:17.737Z,16.16
2023-04-21T07:15:46.854Z,16.17
2023-04-21T07:18:15.555Z,16.26
2023-04-21T07:20:43.861Z,16.41
2023-04-21T07:23:12.542Z,16.48
2023-04-21T07:25:40.727Z,16.51
2023-04-21T07:28:09.247Z,16.44
2023-04-21T07:30:38.685Z,16.53
2023-04-21T07:33:07.110Z,16.63
2023-04-21T07:35:35.611Z,16.70
2023-04-21T07:38:04.019Z,16.76
2023-04-21T07:40:32.340Z,16.86
2023-04-21T07:43:00.718Z,16.88
2023-04-21T07:45:29.113Z,16.99
2023-04-21T07:47:57.567Z,17.16
2023-04-21T07:50:26.185Z,17.14
2023-04-21T07:52:54.093Z,17.25
2023-04-21T07:55:22.452Z,17.26
2023-04-21T07:57:50.874Z,17.37
2023-04-21T08:00:19.076Z,17.43
2023-04-21T08:02:47.553Z,17.47
2023-04-21T08:05:16.309Z,17.69
2023-04-21T08:07:45.397Z,17.82
2023-04-21T08:10:13.931Z,17.93
2023-04-21T08:12:42.232Z,17.98
2023-04-21T08:15:12.357Z,18.05
2023-04-21T08:17:40.907Z,18.21
2023-04-21T08:20:12.183Z,18.35
2023-04-21T08:22:40.900Z,18.41
2023-04-21T08:25:10.350Z,18.50
2023-04-21T08:27:39.666Z,18.51
2023-04-21T08:30:09.144Z,18.69
2023-04-21T08:32:37.182Z,18.84
2023-04-21T08:35:05.948Z,18.92
2023-04-21T08:37:39.888Z,19.10
2023-04-21T08:40:08.734Z,19.39
2023-04-21T08:42:39.284Z,19.58
2023-04-21T08:45:08.601Z,19.75
2023-04-21T08:47:41.612Z,19.82
2023-04-21T08:50:14.798Z,19.98
2023-04-21T08:52:42.813Z,20.14
2023-04-21T08:55:13.631Z,20.19
2023-04-21T08:57:42.007Z,20.28
2023-04-21T09:00:10.966Z,20.45
2023-04-21T09:03:02.017Z,20.81
2023-04-21T09:05:34.276Z,20.78
2023-04-21T09:08:16.488Z,21.03
2023-04-21T09:10:51.222Z,21.28
2023-04-21T09:13:23.154Z,21.34
2023-04-21T09:15:52.360Z,21.51
2023-04-21T09:18:24.186Z,21.58
2023-04-21T09:21:16.155Z,21.95
2023-04-21T09:23:55.463Z,22.19
2023-04-21T09:26:24.145Z,22.17
2023-04-21T09:28:53.520Z,22.30
2023-04-21T09:31:25.215Z,22.62
2023-04-21T09:33:59.519Z,22.85
2023-04-21T09:36:31.846Z,22.94
2023-04-21T09:41:36.178Z,23.18
2023-04-21T09:44:16.412Z,23.28
2023-04-21T09:46:45.770Z,23.40
2023-04-21T09:49:21.981Z,23.71
2023-04-21T09:52:16.995Z,23.95
2023-04-21T09:54:51.115Z,24.43
2023-04-21T09:57:23.361Z,25.34
2023-04-21T10:00:11.994Z,26.16
2023-04-21T10:02:48.763Z,26.66
2023-04-21T10:05:17.636Z,26.72
2023-04-21T10:07:48.034Z,26.87
2023-04-21T10:10:36.584Z,27.46
2023-04-21T10:13:05.316Z,28.16
2023-04-21T10:15:41.652Z,28.90
2023-04-21T10:18:22.673Z,29.65
2023-04-21T10:21:09.953Z,30.06
2023-04-21T10:23:46.410Z,30.28
2023-04-21T10:26:25.574Z,30.27
2023-04-21T10:28:57.564Z,30.61
2023-04-21T10:31:39.101Z,30.95
2023-04-21T10:34:07.764Z,31.23
2023-04-21T10:36:45.982Z,30.54
2023-04-21T10:39:37.850Z,30.87
2023-04-21T10:42:24.693Z,31.50
2023-04-21T10:44:58.830Z,31.86
2023-04-21T10:47:49.698Z,31.72
2023-04-21T10:50:22.204Z,32.33
2023-04-21T10:52:54.620Z,33.37
2023-04-21T10:55:26.912Z,33.50
2023-04-21T10:57:55.610Z,33.97
2023-04-21T11:00:25.190Z,34.37
2023-04-21T11:03:07.033Z,34.66
2023-04-21T11:05:41.846Z,35.37
2023-04-21T11:08:14.775Z,36.23
2023-04-21T11:10:56.190Z,36.33
2023-04-21T11:13:27.989Z,36.90
2023-04-21T11:16:07.271Z,37.08
2023-04-21T11:18:42.908Z,35.84
2023-04-21T11:21:20.002Z,-149.27
2023-04-21T11:23:57.350Z,35.84
2023-04-21T11:26:40.163Z,36.45
2023-04-21T11:29:10.700Z,36.99
2023-04-21T11:31:42.970Z,37.41
2023-04-21T11:34:11.728Z,-149.27
2023-04-21T11:36:43.843Z,-149.27
2023-04-21T11:39:19.567Z,-149.27
2023-04-21T11:41:51.857Z,37.97
2023-04-21T11:44:36.706Z,38.57
2023-04-21T11:47:25.861Z,38.59
2023-04-21T11:49:57.362Z,38.72
2023-04-21T11:52:32.934Z,39.46
2023-04-21T11:55:12.974Z,39.07
2023-04-21T11:57:43.033Z,39.61
2023-04-21T12:00:16.863Z,39.79
2023-04-21T12:02:56.586Z,40.04
2023-04-21T12:05:24.905Z,40.23
2023-04-21T12:07:56.406Z,40.49
2023-04-21T12:10:26.317Z,40.60
2023-04-21T12:12:57.049Z,-149.27
2023-04-21T12:15:26.611Z,-149.27
2023-04-21T12:17:55.792Z,-149.27
2023-04-21T12:20:29.747Z,-149.27
2023-04-21T12:22:58.701Z,-149.27
2023-04-21T12:25:26.954Z,-149.27
2023-04-21T12:27:59.104Z,-149.27
2023-04-21T12:30:27.509Z,-149.27
2023-04-21T12:32:56.029Z,-149.27
2023-04-21T12:35:25.941Z,-149.27
2023-04-21T12:37:53.725Z,-149.27
2023-04-21T12:40:22.055Z,-149.27
2023-04-21T12:42:50.273Z,-149.27
2023-04-21T12:45:18.704Z,-149.27
2023-04-21T12:47:47.281Z,-149.27
2023-04-21T12:50:16.569Z,-149.27
2023-04-21T12:52:44.980Z,-149.27
2023-04-21T12:55:13.757Z,-149.27
2023-04-21T12:57:42.350Z,-149.27
2023-04-21T13:00:14.782Z,-149.27
2023-04-21T13:02:44.523Z,-149.27
2023-04-21T13:05:13.339Z,-149.27
2023-04-21T13:07:41.900Z,-149.27
2023-04-21T13:10:11.115Z,-149.27
2023-04-21T13:12:39.216Z,-149.27
2023-04-21T13:15:08.469Z,-149.27
2023-04-21T13:17:38.085Z,-149.27
2023-04-21T13:20:07.998Z,-149.27
2023-04-21T13:22:36.493Z,-149.27
2023-04-21T13:25:05.118Z,-149.27
2023-04-21T13:27:34.077Z,-149.27
2023-04-21T13:30:02.275Z,-149.27
2023-04-21T13:32:30.706Z,-149.27
2023-04-21T13:34:59.077Z,-149.27
2023-04-21T13:37:27.495Z,-149.27
2023-04-21T13:39:56.878Z,-149.27
2023-04-21T13:42:25.679Z,-149.27
2023-04-21T13:44:53.980Z,-149.27
2023-04-21T13:47:22.269Z,-149.27
2023-04-21T13:49:51.488Z,-149.27
2023-04-21T13:52:19.765Z,-149.27
2023-04-21T13:54:48.063Z,-149.27
2023-04-21T13:57:16.470Z,-149.27
2023-04-21T13:59:44.901Z,-149.27
2023-04-21T14:02:13.385Z,-149.27
2023-04-21T14:04:42.047Z,-149.27
2023-04-21T14:07:11.085Z,-149.27
2023-04-21T14:09:39.007Z,-149.27
2023-04-21T14:12:07.536Z,-149.27
2023-04-21T14:14:38.852Z,-149.27
2023-04-21T14:17:08.300Z,-149.27
2023-04-21T14:19:37.118Z,-149.27
2023-04-21T14:22:05.474Z,-149.27
2023-04-21T14:24:34.070Z,-149.27
2023-04-21T14:27:02.385Z,-149.27
2023-04-21T14:29:30.835Z,-149.27
2023-04-21T14:31:59.451Z,-149.27
2023-04-21T14:34:27.933Z,-149.27
2023-04-21T14:36:56.613Z,-149.27
2023-04-21T14:39:25.800Z,-149.27
2023-04-21T14:41:54.479Z,-149.27
2023-04-21T14:44:22.738Z,-149.27
2023-04-21T14:47:01.483Z,-149.27
2023-04-21T14:49:40.802Z,-149.27
2023-04-21T14:52:09.301Z,-149.27
2023-04-21T14:54:37.607Z,-149.27
2023-04-21T14:57:17.460Z,-149.27
2023-04-21T14:59:49.357Z,-149.27
2023-04-21T15:02:17.934Z,-149.27
2023-04-21T15:04:46.510Z,-149.27
2023-04-21T15:07:17.183Z,-149.27
2023-04-21T15:09:48.578Z,-149.27
2023-04-21T15:12:16.467Z,-149.27
2023-04-21T15:14:45.112Z,-149.27
2023-04-21T15:17:13.720Z,-149.27
2023-04-21T15:19:42.293Z,-149.27
2023-04-21T15:22:12.056Z,-149.27
2023-04-21T15:24:40.426Z,-149.27
2023-04-21T15:27:08.718Z,-149.27
2023-04-21T15:29:37.303Z,-149.27
2023-04-21T15:32:05.568Z,-149.27
2023-04-21T15:34:34.015Z,-149.27
2023-04-21T15:37:02.342Z,-149.27
2023-04-21T15:39:30.706Z,-149.27
2023-04-21T15:41:59.517Z,-149.27
2023-04-21T15:44:27.931Z,-149.27
2023-04-21T15:46:56.503Z,-149.27
2023-04-21T15:49:26.223Z,-149.27
2023-04-21T15:51:54.136Z,-149.27
2023-04-21T15:54:22.859Z,-149.27
2023-04-21T15:56:51.331Z,-149.27
2023-04-21T15:59:19.592Z,-149.27
2023-04-21T16:01:47.736Z,-149.27
2023-04-21T16:04:16.393Z,-149.27
2023-04-21T16:06:44.840Z,-149.27
2023-04-21T16:09:13.158Z,-149.27
2023-04-21T16:11:41.417Z,-149.27
2023-04-21T16:14:09.796Z,-149.27
2023-04-21T16:16:38.196Z,-149.27
2023-04-21T16:19:07.098Z,-149.27
2023-04-21T16:21:36.263Z,-149.27
2023-04-21T16:24:07.434Z,-149.27
2023-04-21T16:26:36.764Z,-149.27
2023-04-21T16:29:05.323Z,-149.27
2023-04-21T16:31:33.804Z,-149.27
2023-04-21T16:34:02.068Z,-149.27
2023-04-21T16:36:32.450Z,-149.27
2023-04-21T16:39:01.150Z,-149.27
2023-04-21T16:41:30.411Z,-149.27
2023-04-21T16:43:58.842Z,-149.27
2023-04-21T16:46:27.196Z,-149.27
2023-04-21T16:48:55.858Z,-149.27
2023-04-21T16:51:26.111Z,-149.27
2023-04-21T16:53:56.464Z,-149.27
2023-04-21T16:56:24.922Z,-149.27
2023-04-21T16:58:53.355Z,-149.27
2023-04-21T17:01:21.981Z,-149.27
2023-04-21T17:03:50.365Z,-149.27
2023-04-21T17:06:21.174Z,-149.27
2023-04-21T17:08:49.796Z,-149.27
2023-04-21T17:11:18.178Z,-149.27
2023-04-21T17:13:46.561Z,-149.27
2023-04-21T17:16:14.939Z,-149.27
2023-04-21T17:18:43.262Z,-149.27
2023-04-21T17:21:12.562Z,-149.27
2023-04-21T17:23:41.201Z,-149.27
2023-04-21T17:26:12.255Z,-149.27
2023-04-21T17:28:41.505Z,-149.27
2023-04-21T17:31:15.918Z,-149.27
2023-04-21T17:33:45.513Z,25.85
2023-04-21T17:36:13.689Z,25.70
2023-04-21T17:38:43.210Z,25.58
2023-04-21T17:41:11.693Z,25.42
2023-04-21T17:43:40.844Z,-149.27
2023-04-21T17:46:09.391Z,25.42
2023-04-21T17:48:37.811Z,25.24
2023-04-21T17:51:06.386Z,25.06
2023-04-21T17:53:34.638Z,24.89
2023-04-21T17:56:02.918Z,24.77
2023-04-21T17:58:31.381Z,24.67
2023-04-21T18:00:59.607Z,24.49
2023-04-21T18:03:28.381Z,24.26
2023-04-21T18:05:57.364Z,24.15
2023-04-21T18:08:26.309Z,24.09
2023-04-21T18:10:55.569Z,23.94
2023-04-21T18:13:24.128Z,23.71
2023-04-21T18:15:52.244Z,23.55
2023-04-21T18:18:20.970Z,23.38
2023-04-21T18:20:49.017Z,23.36
2023-04-21T18:23:17.363Z,23.26
2023-04-21T18:25:45.948Z,23.13
2023-04-21T18:28:14.432Z,23.00
2023-04-21T18:30:42.834Z,22.89
2023-04-21T18:33:11.849Z,22.74
2023-04-21T18:35:42.158Z,22.69
2023-04-21T18:38:11.919Z,22.58
2023-04-21T18:40:41.388Z,22.49
2023-04-21T18:43:11.002Z,22.40
2023-04-21T18:45:39.568Z,22.29
2023-04-21T18:48:08.419Z,22.22
2023-04-21T18:50:39.882Z,22.12
2023-04-21T18:53:08.991Z,21.97
2023-04-21T18:55:37.719Z,21.90
2023-04-21T18:58:06.341Z,21.78
2023-04-21T19:00:37.231Z,21.71
2023-04-21T19:03:06.678Z,21.62
2023-04-21T19:05:36.766Z,21.52
2023-04-21T19:08:05.630Z,21.51
2023-04-21T19:10:37.875Z,21.43
2023-04-21T19:13:06.481Z,21.37
2023-04-21T19:15:35.394Z,21.29
2023-04-21T19:18:03.739Z,21.23
2023-04-21T19:20:32.438Z,21.16
2023-04-21T19:23:01.675Z,21.11
2023-04-21T19:25:30.937Z,21.05
2023-04-21T19:28:00.254Z,21.01
2023-04-21T19:30:28.690Z,20.96
2023-04-21T19:32:57.028Z,20.96
2023-04-21T19:35:26.132Z,20.91
2023-04-21T19:37:54.431Z,20.84
2023-04-21T19:40:22.273Z,20.87
2023-04-21T19:42:50.614Z,20.80
2023-04-21T19:45:18.856Z,20.77
2023-04-21T19:47:47.653Z,20.72
2023-04-21T19:50:16.240Z,20.70
2023-04-21T19:52:46.416Z,20.60
2023-04-21T19:55:14.823Z,20.60
2023-04-21T19:57:43.076Z,20.51
2023-04-21T20:00:12.443Z,20.51
2023-04-21T20:02:40.837Z,20.50
2023-04-21T20:05:10.010Z,20.42
2023-04-21T20:07:38.561Z,20.40
2023-04-21T20:10:08.297Z,20.39
2023-04-21T20:12:36.563Z,20.37
2023-04-21T20:15:05.820Z,20.33
2023-04-21T20:17:34.260Z,20.28
2023-04-21T20:20:05.164Z,20.24
2023-04-21T20:22:35.752Z,20.28
2023-04-21T20:25:04.899Z,20.28
2023-04-21T20:27:33.452Z,20.23
2023-04-21T20:30:01.668Z,20.25
2023-04-21T20:32:30.222Z,20.26
2023-04-21T20:34:59.585Z,20.29
2023-04-21T20:37:28.399Z,20.29
2023-04-21T20:40:00.930Z,20.31
2023-04-21T20:42:29.430Z,20.35
2023-04-21T20:44:57.234Z,20.39
2023-04-21T20:47:25.669Z,20.35
2023-04-21T20:49:54.741Z,20.42
2023-04-21T20:52:23.060Z,20.19
2023-04-21T20:54:52.387Z,19.88
2023-04-21T20:57:20.486Z,19.69
2023-04-21T20:59:48.992Z,20.35
2023-04-21T21:02:17.474Z,20.42
2023-04-21T21:04:47.202Z,20.36
2023-04-21T21:07:15.197Z,20.39
2023-04-21T21:09:44.472Z,20.37
2023-04-21T21:12:12.828Z,20.40
2023-04-21T21:14:41.160Z,20.42
2023-04-21T21:17:12.743Z,20.37
2023-04-21T21:19:41.671Z,20.33
2023-04-21T21:22:09.902Z,20.25
2023-04-21T21:24:38.338Z,20.02
2023-04-21T21:27:08.610Z,20.01
2023-04-21T21:29:37.290Z,19.91
2023-04-21T21:32:05.538Z,19.85
2023-04-21T21:34:33.591Z,19.81
2023-04-21T21:37:02.573Z,19.73
2023-04-21T21:39:30.806Z,19.67
2023-04-21T21:41:58.705Z,19.63
2023-04-21T21:44:27.113Z,19.58
2023-04-21T21:46:55.380Z,19.55
2023-04-21T21:49:23.660Z,19.51
2023-04-21T21:51:53.128Z,19.46
2023-04-21T21:54:21.753Z,19.40
2023-04-21T21:56:50.415Z,19.34
2023-04-21T21:59:18.243Z,19.26
2023-04-21T22:01:46.318Z,19.23
2023-04-21T22:04:14.900Z,19.21
2023-04-21T22:06:45.193Z,19.13
2023-04-21T22:09:13.579Z,19.11
2023-04-21T22:11:41.900Z,19.10
2023-04-21T22:14:21.916Z,19.02
2023-04-21T22:16:52.484Z,18.70
2023-04-21T22:19:21.473Z,18.91
2023-04-21T22:21:49.732Z,19.08
2023-04-21T22:24:18.277Z,19.15
2023-04-21T22:26:47.351Z,19.19
2023-04-21T22:29:15.369Z,19.18
2023-04-21T22:31:43.402Z,19.18
2023-04-21T22:34:14.922Z,19.18
2023-04-21T22:36:43.440Z,19.15
2023-04-21T22:39:12.101Z,19.14
2023-04-21T22:41:39.944Z,19.12
2023-04-21T22:44:08.060Z,19.07
2023-04-21T22:46:36.779Z,19.05
2023-04-21T22:49:05.187Z,19.02
2023-04-21T22:51:33.582Z,18.98
2023-04-21T22:54:01.931Z,18.95
2023-04-21T22:56:33.159Z,18.91
2023-04-21T22:59:01.446Z,18.89
2023-04-21T23:01:29.703Z,18.89
2023-04-21T23:03:57.927Z,18.85
2023-04-21T23:06:26.584Z,18.80
2023-04-21T23:08:54.533Z,18.75
2023-04-21T23:11:22.914Z,18.71
2023-04-21T23:13:50.968Z,18.62
2023-04-21T23:16:19.301Z,18.65
2023-04-21T23:18:47.450Z,18.64
2023-04-21T23:21:15.884Z,18.60
2023-04-21T23:23:44.177Z,18.59
2023-04-21T23:26:12.380Z,18.57
2023-04-21T23:28:40.384Z,18.58
2023-04-21T23:31:08.338Z,18.56
2023-04-21T23:33:36.782Z,18.56
2023-04-21T23:36:04.834Z,18.55
2023-04-21T23:38:32.851Z,18.56
2023-04-21T23:41:00.863Z,18.55
2023-04-21T23:43:29.288Z,18.51
2023-04-21T23:45:57.501Z,18.55
2023-04-21T23:48:25.469Z,18.48
2023-04-21T23:50:53.657Z,18.50
2023-04-21T23:53:21.826Z,18.51
2023-04-21T23:55:49.750Z,18.50
2023-04-21T23:58:17.719Z,18.48
